Time;durP1;ratioP1;P1;durP2;ratioP2;P2;SDS_P1;SDS_P2;PMS_P1;PMS_P2;Temp;Humidity;BMP_temperature;BMP_pressure;BME280_temperature;BME280_humidity;BME280_pressure;Samples;Min_cycle;Max_cycle;Signal;HPM_P1;HPM_P2
2023/11/13 00:01:46;;;;;;;13.07;6.63;;;;;;;8.60;100.00;97336.69;5009325;28;20397;-76
2023/11/13 00:04:11;;;;;;;11.70;7.13;;;;;;;8.61;100.00;97343.75;5009333;28;20025;-77
2023/11/13 00:06:37;;;;;;;15.23;7.53;;;;;;;8.69;100.00;97352.16;4992716;28;20038;-76
2023/11/13 00:09:04;;;;;;;15.50;7.40;;;;;;;8.67;100.00;97351.38;5009409;28;20101;-76
2023/11/13 00:11:30;;;;;;;13.45;7.10;;;;;;;8.64;100.00;97357.72;5012317;28;20034;-76
2023/11/13 00:13:55;;;;;;;12.73;6.05;;;;;;;8.46;100.00;97365.94;4997258;28;20033;-77
2023/11/13 00:16:21;;;;;;;12.77;5.82;;;;;;;8.50;100.00;97357.66;5013544;28;20034;-76
2023/11/13 00:18:46;;;;;;;11.57;6.50;;;;;;;8.50;100.00;97348.81;5013276;28;20036;-76
2023/11/13 00:21:15;;;;;;;9.88;5.50;;;;;;;8.49;100.00;97344.44;5013287;28;20065;-76
2023/11/13 00:23:43;;;;;;;9.77;5.45;;;;;;;8.48;100.00;97350.72;5012969;28;20042;-76
2023/11/13 00:26:09;;;;;;;9.82;5.68;;;;;;;8.52;100.00;97360.25;4993933;28;20386;-76
2023/11/13 00:28:35;;;;;;;9.63;5.28;;;;;;;8.57;100.00;97363.50;5012908;28;20022;-76
2023/11/13 00:31:01;;;;;;;11.85;6.20;;;;;;;8.52;100.00;97352.25;4996781;28;20092;-77
2023/11/13 00:33:27;;;;;;;14.50;5.95;;;;;;;8.58;100.00;97347.41;4996966;28;20036;-77
2023/11/13 00:35:53;;;;;;;8.10;5.63;;;;;;;8.57;100.00;97344.84;5013140;28;20097;-76
2023/11/13 00:38:18;;;;;;;13.48;6.00;;;;;;;8.58;100.00;97354.59;4996797;28;20080;-77
2023/11/13 00:40:44;;;;;;;11.65;6.10;;;;;;;8.56;100.00;97345.78;5013004;28;20029;-75
2023/11/13 00:43:09;;;;;;;9.93;6.35;;;;;;;8.55;100.00;97354.75;4996398;28;20034;-75
2023/11/13 00:45:35;;;;;;;14.57;6.78;;;;;;;8.63;100.00;97364.03;5012879;28;20040;-76
2023/11/13 00:48:00;;;;;;;13.35;7.10;;;;;;;8.68;100.00;97361.09;5012805;28;20045;-76
2023/11/13 00:50:26;;;;;;;13.43;7.68;;;;;;;8.58;100.00;97346.59;5012779;28;20041;-77
2023/11/13 00:52:53;;;;;;;13.93;7.82;;;;;;;8.68;100.00;97355.75;4996306;28;20057;-77
2023/11/13 00:55:18;;;;;;;14.27;6.82;;;;;;;8.74;100.00;97343.91;4996456;28;20041;-76
2023/11/13 00:57:44;;;;;;;10.00;5.78;;;;;;;8.77;100.00;97347.22;5012585;28;20030;-75
2023/11/13 01:00:11;;;;;;;9.27;5.75;;;;;;;8.83;100.00;97344.19;4996214;28;20113;-76
2023/11/13 01:02:36;;;;;;;10.27;5.22;;;;;;;8.91;100.00;97357.97;5012574;28;20457;-78
2023/11/13 01:05:03;;;;;;;12.70;6.30;;;;;;;8.83;100.00;97346.84;4995954;28;20033;-77
2023/11/13 01:07:29;;;;;;;12.13;6.35;;;;;;;8.84;100.00;97340.59;5013366;28;20029;-76
2023/11/13 01:09:55;;;;;;;9.57;5.55;;;;;;;8.88;100.00;97331.47;5012602;28;20022;-76
2023/11/13 01:12:22;;;;;;;9.55;5.03;;;;;;;8.85;100.00;97330.78;4996502;28;20033;-76
2023/11/13 01:14:48;;;;;;;9.57;5.30;;;;;;;8.82;100.00;97329.16;5012812;28;20034;-76
2023/11/13 01:17:14;;;;;;;16.15;6.50;;;;;;;8.60;100.00;97320.69;5012237;28;20030;-76
2023/11/13 01:19:40;;;;;;;12.05;6.68;;;;;;;8.44;100.00;97330.50;5012554;28;20025;-76
2023/11/13 01:22:06;;;;;;;11.77;6.57;;;;;;;8.48;100.00;97346.25;5011906;28;20034;-77
2023/11/13 01:24:32;;;;;;;12.38;7.03;;;;;;;8.49;100.00;97336.44;4995748;28;20103;-76
2023/11/13 01:26:57;;;;;;;12.07;7.07;;;;;;;8.58;100.00;97339.41;4995970;28;20152;-77
2023/11/13 01:29:23;;;;;;;12.55;7.68;;;;;;;8.62;100.00;97334.78;4995502;28;20113;-76
2023/11/13 01:31:48;;;;;;;18.42;8.45;;;;;;;8.62;100.00;97329.44;4995681;28;20103;-76
2023/11/13 01:34:15;;;;;;;14.52;8.00;;;;;;;8.54;100.00;97331.69;5011970;28;20615;-77
2023/11/13 01:36:44;;;;;;;15.52;7.43;;;;;;;8.65;100.00;97337.25;5012110;28;20022;-76
2023/11/13 01:39:10;;;;;;;15.38;7.85;;;;;;;8.64;100.00;97331.06;5011702;28;20034;-76
2023/11/13 01:41:36;;;;;;;13.60;5.97;;;;;;;8.69;100.00;97333.47;4995490;28;20353;-76
2023/11/13 01:44:03;;;;;;;10.98;5.88;;;;;;;8.59;100.00;97325.16;5011905;28;20099;-75
2023/11/13 01:46:32;;;;;;;9.48;5.85;;;;;;;8.66;100.00;97331.84;4995231;28;20029;-76
2023/11/13 01:48:59;;;;;;;9.35;5.72;;;;;;;8.72;100.00;97335.97;5011746;28;20542;-75
2023/11/13 01:51:26;;;;;;;9.52;5.38;;;;;;;8.78;100.00;97345.41;4995315;28;20030;-76
2023/11/13 01:53:53;;;;;;;11.13;6.20;;;;;;;8.75;100.00;97346.47;5011756;28;20445;-76
2023/11/13 01:56:20;;;;;;;10.30;5.82;;;;;;;8.83;100.00;97343.38;4995105;28;20026;-76
2023/11/13 01:58:46;;;;;;;12.57;6.03;;;;;;;8.75;100.00;97335.78;5011986;28;20392;-75
2023/11/13 02:01:12;;;;;;;14.23;6.82;;;;;;;8.75;100.00;97332.25;4993031;28;20030;-77
2023/11/13 02:03:39;;;;;;;9.65;6.13;;;;;;;8.73;100.00;97332.38;4995072;28;20025;-76
2023/11/13 02:06:06;;;;;;;10.40;6.38;;;;;;;8.64;100.00;97323.06;4994902;28;20125;-77
2023/11/13 02:08:32;;;;;;;11.95;6.47;;;;;;;8.70;100.00;97340.53;5011339;28;20500;-76
2023/11/13 02:11:03;;;;;;;15.73;6.28;;;;;;;8.65;100.00;97334.59;4995214;28;20350;-76
2023/11/13 02:13:29;;;;;;;15.90;7.60;;;;;;;8.65;100.00;97345.25;5011088;28;20060;-76
2023/11/13 02:15:55;;;;;;;12.88;6.70;;;;;;;8.66;100.00;97347.00;5012674;28;20057;-73
2023/11/13 02:18:20;;;;;;;14.75;7.57;;;;;;;8.66;100.00;97355.00;5012319;28;20024;-76
2023/11/13 02:20:46;;;;;;;16.33;7.55;;;;;;;8.60;100.00;97350.00;4994652;28;20033;-76
2023/11/13 02:23:15;;;;;;;12.73;7.55;;;;;;;8.55;100.00;97349.44;4991883;28;20026;-76
2023/11/13 02:25:41;;;;;;;13.90;7.95;;;;;;;8.64;100.00;97349.72;4994885;28;20037;-76
2023/11/13 02:28:08;;;;;;;15.25;7.88;;;;;;;8.66;100.00;97352.31;4994646;28;20029;-77
2023/11/13 02:30:37;;;;;;;18.88;10.52;;;;;;;8.55;100.00;97333.44;4994634;28;20465;-76
2023/11/13 02:33:03;;;;;;;18.02;7.50;;;;;;;8.61;100.00;97349.06;4977806;28;20536;-75
2023/11/13 02:35:29;;;;;;;12.77;6.60;;;;;;;8.64;100.00;97363.06;4994240;28;20061;-76
2023/11/13 02:37:55;;;;;;;12.63;6.55;;;;;;;8.61;100.00;97354.41;5011996;28;20096;-76
2023/11/13 02:40:21;;;;;;;14.85;6.85;;;;;;;8.53;100.00;97356.63;4978275;28;20026;-77
2023/11/13 02:42:46;;;;;;;9.50;5.88;;;;;;;8.51;100.00;97358.53;4974997;28;20026;-76
2023/11/13 02:45:12;;;;;;;11.05;5.88;;;;;;;8.59;100.00;97356.28;4978147;28;20369;-76
2023/11/13 02:47:38;;;;;;;9.50;6.28;;;;;;;8.58;100.00;97354.59;4994102;28;20112;-76
2023/11/13 02:50:07;;;;;;;13.95;5.18;;;;;;;8.58;100.00;97357.25;4974988;28;20030;-76
2023/11/13 02:52:33;;;;;;;9.15;5.35;;;;;;;8.58;100.00;97349.25;4993326;28;20041;-77
2023/11/13 02:54:58;;;;;;;9.65;5.75;;;;;;;8.62;100.00;97358.78;4978513;28;20026;-77
2023/11/13 02:57:24;;;;;;;10.27;6.20;;;;;;;8.60;100.00;97374.00;4994543;28;20440;-76
2023/11/13 02:59:50;;;;;;;11.18;7.28;;;;;;;8.46;100.00;97365.94;4974538;28;20531;-77
2023/11/13 03:02:15;;;;;;;33.45;20.85;;;;;;;8.38;100.00;97365.50;4974514;28;20075;-77
2023/11/13 03:04:41;;;;;;;69.68;42.35;;;;;;;8.46;100.00;97361.44;4993930;28;20599;-76
2023/11/13 03:07:07;;;;;;;17.13;9.23;;;;;;;8.43;100.00;97353.63;4993960;28;20034;-76
2023/11/13 03:09:33;;;;;;;12.90;7.43;;;;;;;8.49;100.00;97365.75;4977597;28;20169;-76
2023/11/13 03:11:59;;;;;;;17.02;8.73;;;;;;;8.44;100.00;97357.16;4977788;28;20033;-76
2023/11/13 03:14:24;;;;;;;15.32;9.25;;;;;;;8.50;100.00;97372.78;4993837;28;20068;-76
2023/11/13 03:16:50;;;;;;;19.70;9.93;;;;;;;8.50;100.00;97364.78;4993488;28;20068;-77
2023/11/13 03:19:16;;;;;;;16.02;9.02;;;;;;;8.50;100.00;97363.00;4993943;28;20485;-76
2023/11/13 03:21:41;;;;;;;19.90;8.48;;;;;;;8.43;100.00;97366.13;4977798;28;20030;-77
2023/11/13 03:24:07;;;;;;;14.60;8.88;;;;;;;8.43;100.00;97366.13;4998060;28;20424;-76
2023/11/13 03:26:33;;;;;;;14.93;8.93;;;;;;;8.44;100.00;97371.34;5011191;28;20034;-77
2023/11/13 03:28:58;;;;;;;16.98;9.60;;;;;;;8.30;100.00;97367.75;5009812;28;20499;-77
2023/11/13 03:31:24;;;;;;;11.45;6.97;;;;;;;8.32;100.00;97364.03;5011060;28;20120;-76
2023/11/13 03:33:51;;;;;;;11.40;7.03;;;;;;;8.43;100.00;97374.94;5010088;28;20037;-76
2023/11/13 03:36:16;;;;;;;8.88;5.93;;;;;;;8.41;100.00;97366.19;5009738;28;20034;-76
2023/11/13 03:38:42;;;;;;;15.35;6.22;;;;;;;8.42;100.00;97377.72;5009776;28;20413;-76
2023/11/13 03:41:08;;;;;;;13.45;6.70;;;;;;;8.59;100.00;97388.25;5009471;28;20061;-77
2023/11/13 03:43:35;;;;;;;18.00;8.85;;;;;;;8.57;100.00;97390.16;5010962;28;20512;-76
2023/11/13 03:46:02;;;;;;;16.90;7.57;;;;;;;8.60;100.00;97395.31;5009602;28;20529;-75
2023/11/13 03:48:28;;;;;;;15.70;7.78;;;;;;;8.61;100.00;97397.06;5010820;28;20030;-75
2023/11/13 03:50:53;;;;;;;18.85;7.97;;;;;;;8.65;100.00;97403.91;5009901;28;20038;-76
2023/11/13 03:53:19;;;;;;;15.45;7.75;;;;;;;8.73;100.00;97415.03;5009423;28;20401;-77
2023/11/13 03:55:45;;;;;;;13.32;7.15;;;;;;;8.72;100.00;97418.63;4993001;28;20134;-76
2023/11/13 03:58:11;;;;;;;16.15;6.95;;;;;;;8.63;100.00;97411.16;5009498;28;20463;-77
2023/11/13 04:00:36;;;;;;;14.63;7.07;;;;;;;8.66;100.00;97411.84;5009615;28;20059;-76
2023/11/13 04:03:02;;;;;;;12.05;6.93;;;;;;;8.71;100.00;97416.91;5009389;28;20468;-77
2023/11/13 04:05:29;;;;;;;11.68;6.72;;;;;;;8.65;100.00;97418.13;4993163;28;20117;-77
2023/11/13 04:07:57;;;;;;;14.80;7.75;;;;;;;8.63;100.00;97416.47;5009621;28;20025;-77
2023/11/13 04:10:23;;;;;;;14.32;7.38;;;;;;;8.56;100.00;97409.75;5010347;28;20029;-76
2023/11/13 04:12:50;;;;;;;16.65;8.50;;;;;;;8.72;100.00;97413.28;4992957;28;20038;-77
2023/11/13 04:15:15;;;;;;;10.75;6.85;;;;;;;8.65;100.00;97414.59;5010518;28;20041;-77
2023/11/13 04:17:41;;;;;;;10.13;6.88;;;;;;;8.66;100.00;97408.31;4992894;28;20037;-75
2023/11/13 04:20:11;;;;;;;12.95;6.65;;;;;;;8.64;100.00;97387.06;5009512;28;20497;-76
2023/11/13 04:22:37;;;;;;;10.23;6.50;;;;;;;8.68;100.00;97403.75;5009510;28;20032;-76
2023/11/13 04:25:03;;;;;;;13.57;6.45;;;;;;;8.65;100.00;97404.78;5009041;28;20137;-76
2023/11/13 04:27:29;;;;;;;15.80;6.10;;;;;;;8.69;100.00;97421.47;4992530;28;20128;-77
2023/11/13 04:29:55;;;;;;;12.15;7.13;;;;;;;8.65;100.00;97418.13;5010281;28;20469;-76
2023/11/13 04:32:21;;;;;;;15.07;8.00;;;;;;;8.60;100.00;97422.00;4992943;28;20433;-76
2023/11/13 04:34:47;;;;;;;12.82;7.68;;;;;;;8.65;100.00;97419.91;4991189;28;20061;-78
2023/11/13 04:37:12;;;;;;;14.57;8.13;;;;;;;8.60;100.00;97427.31;4992605;28;20192;-77
2023/11/13 04:39:38;;;;;;;13.15;7.15;;;;;;;8.56;100.00;97431.09;5008997;28;20370;-77
2023/11/13 04:42:04;;;;;;;13.40;7.15;;;;;;;8.46;100.00;97437.91;5009241;28;20033;-76
2023/11/13 04:44:30;;;;;;;15.45;6.95;;;;;;;8.44;100.00;97439.78;5009051;28;20084;-76
2023/11/13 04:46:56;;;;;;;13.80;7.72;;;;;;;8.43;100.00;97448.72;5009027;28;20030;-77
2023/11/13 04:49:22;;;;;;;16.52;8.95;;;;;;;8.36;100.00;97460.66;4992683;28;20065;-77
2023/11/13 04:51:47;;;;;;;15.55;8.75;;;;;;;8.37;100.00;97460.56;4992792;28;20034;-76
2023/11/13 04:54:13;;;;;;;16.92;11.10;;;;;;;8.45;100.00;97469.03;5008924;28;20467;-78
2023/11/13 04:56:38;;;;;;;15.27;9.75;;;;;;;8.56;100.00;97471.06;5010477;28;20112;-77
2023/11/13 04:59:06;;;;;;;20.25;11.73;;;;;;;8.52;100.00;97477.53;5012730;28;20026;-75
2023/11/13 05:01:36;;;;;;;23.63;11.40;;;;;;;8.59;100.00;97485.09;5012475;28;20029;-75
2023/11/13 05:04:03;;;;;;;18.13;10.65;;;;;;;8.51;100.00;97476.69;5013954;28;20026;-76
2023/11/13 05:06:28;;;;;;;20.88;11.30;;;;;;;8.47;100.00;97484.91;5012359;28;20032;-76
2023/11/13 05:08:54;;;;;;;14.45;8.40;;;;;;;8.45;100.00;97489.47;5012162;28;20108;-76
2023/11/13 05:11:23;;;;;;;12.93;6.90;;;;;;;8.51;100.00;97507.81;5012341;28;20056;-76
2023/11/13 05:13:53;;;;;;;12.93;7.30;;;;;;;8.57;100.00;97503.00;4995923;28;20040;-78
2023/11/13 05:16:20;;;;;;;15.63;7.50;;;;;;;8.52;100.00;97499.69;4992879;28;20034;-77
2023/11/13 05:18:46;;;;;;;18.38;7.57;;;;;;;8.53;100.00;97501.44;5009187;28;20034;-77
2023/11/13 05:21:13;;;;;;;16.75;7.82;;;;;;;8.58;100.00;97506.53;5010820;28;20504;-77
2023/11/13 05:23:38;;;;;;;12.13;6.32;;;;;;;8.59;100.00;97506.44;4993257;28;20049;-76
2023/11/13 05:26:04;;;;;;;19.88;10.00;;;;;;;8.67;100.00;97524.69;5009261;28;20124;-76
2023/11/13 05:28:30;;;;;;;35.42;19.10;;;;;;;8.65;100.00;97532.75;5009265;28;20041;-77
2023/11/13 05:30:55;;;;;;;21.88;12.43;;;;;;;8.69;100.00;97533.44;4992426;28;20037;-76
2023/11/13 05:33:21;;;;;;;30.70;13.70;;;;;;;8.66;100.00;97544.28;5009346;28;20048;-77
2023/11/13 05:35:46;;;;;;;34.30;20.17;;;;;;;8.62;100.00;97540.91;5009517;28;20026;-79
2023/11/13 05:38:13;;;;;;;36.97;17.33;;;;;;;8.69;100.00;97544.13;5010040;28;20021;-76
2023/11/13 05:40:39;;;;;;;23.70;11.38;;;;;;;8.69;100.00;97544.13;4995395;28;20048;-76
2023/11/13 05:43:04;;;;;;;17.92;10.38;;;;;;;8.78;100.00;97553.41;4995255;28;20053;-77
2023/11/13 05:45:30;;;;;;;21.17;12.07;;;;;;;8.85;100.00;97565.47;5011443;28;20600;-77
2023/11/13 05:47:55;;;;;;;49.40;23.08;;;;;;;8.88;100.00;97567.97;5011817;28;20029;-78
2023/11/13 05:50:21;;;;;;;26.05;13.18;;;;;;;8.91;100.00;97576.69;5012488;28;20025;-77
2023/11/13 05:52:47;;;;;;;26.40;14.77;;;;;;;8.96;100.00;97573.75;5011605;28;20100;-78
2023/11/13 05:55:13;;;;;;;47.33;25.63;;;;;;;8.98;100.00;97571.88;4995499;28;20040;-77
2023/11/13 05:57:38;;;;;;;19.15;11.48;;;;;;;8.97;100.00;97581.69;5011953;28;20413;-78
2023/11/13 06:00:05;;;;;;;19.48;11.65;;;;;;;9.01;100.00;97567.19;5012297;28;20036;-77
2023/11/13 06:02:32;;;;;;;25.88;13.75;;;;;;;9.18;100.00;97571.63;4995165;28;20056;-77
2023/11/13 06:04:58;;;;;;;25.40;12.65;;;;;;;9.20;100.00;97564.38;5011396;28;20543;-79
2023/11/13 06:07:24;;;;;;;16.55;9.82;;;;;;;9.33;100.00;97553.88;5010685;28;20092;-77
2023/11/13 06:09:49;;;;;;;17.80;8.93;;;;;;;9.44;100.00;97554.13;5010803;28;20048;-76
2023/11/13 06:12:15;;;;;;;19.65;8.65;;;;;;;9.42;100.00;97542.66;5011966;28;20555;-76
2023/11/13 06:14:40;;;;;;;16.95;8.52;;;;;;;9.38;100.00;97550.00;5012506;28;20022;-77
2023/11/13 06:17:06;;;;;;;16.23;9.77;;;;;;;9.50;100.00;97551.09;4995341;28;20056;-76
2023/11/13 06:19:32;;;;;;;15.65;9.65;;;;;;;10.10;100.00;97560.84;4995422;28;20456;-76
2023/11/13 06:21:58;;;;;;;25.90;11.27;;;;;;;10.62;100.00;97549.69;5011150;28;20025;-76
2023/11/13 06:24:24;;;;;;;29.83;13.60;;;;;;;11.40;100.00;97541.94;5011172;28;20500;-77
2023/11/13 06:26:50;;;;;;;20.40;11.15;;;;;;;12.76;100.00;97529.03;5011138;28;20531;-76
2023/11/13 06:29:15;;;;;;;15.48;9.13;;;;;;;13.80;100.00;97498.09;5012619;28;20022;-76
2023/11/13 06:31:42;;;;;;;16.42;10.98;;;;;;;14.94;100.00;97485.50;5011242;28;20096;-77
2023/11/13 06:34:08;;;;;;;27.27;12.93;;;;;;;15.32;100.00;97474.28;5011962;28;20038;-77
2023/11/13 06:36:36;;;;;;;42.92;18.58;;;;;;;15.92;100.00;97475.59;5010920;28;20026;-76
2023/11/13 06:39:01;;;;;;;28.30;14.82;;;;;;;16.56;100.00;97473.66;4994503;28;20553;-76
2023/11/13 06:41:28;;;;;;;36.88;17.35;;;;;;;16.34;100.00;97466.53;5012277;28;20037;-76
2023/11/13 06:43:54;;;;;;;65.47;28.75;;;;;;;16.55;100.00;97464.69;5010838;28;20044;-76
2023/11/13 06:46:19;;;;;;;73.68;36.78;;;;;;;16.73;100.00;97473.88;4994404;28;20113;-77
2023/11/13 06:48:45;;;;;;;55.30;26.85;;;;;;;17.04;100.00;97479.31;5011976;28;20473;-76
2023/11/13 06:51:15;;;;;;;38.10;20.73;;;;;;;17.50;100.00;97466.06;5010874;28;20080;-77
2023/11/13 06:53:41;;;;;;;41.45;22.52;;;;;;;18.46;100.00;97463.34;4994421;28;20418;-77
2023/11/13 06:56:06;;;;;;;30.20;17.10;;;;;;;18.15;100.00;97454.56;4994066;28;20042;-78
2023/11/13 06:58:34;;;;;;;30.10;16.67;;;;;;;18.27;100.00;97455.28;4993885;28;20030;-75
2023/11/13 07:01:00;;;;;;;20.90;11.48;;;;;;;18.07;100.00;97467.97;5011761;28;20039;-76
2023/11/13 07:03:25;;;;;;;23.23;11.30;;;;;;;18.41;99.28;97460.22;5010405;28;20452;-75
2023/11/13 07:05:53;;;;;;;16.30;9.57;;;;;;;18.18;98.03;97450.72;5011735;28;20026;-75
2023/11/13 07:08:19;;;;;;;21.75;13.43;;;;;;;18.47;97.96;97442.53;4994418;28;20038;-76
2023/11/13 07:10:45;;;;;;;21.00;12.05;;;;;;;18.64;98.59;97442.66;4994217;28;20041;-76
2023/11/13 07:13:11;;;;;;;21.55;12.80;;;;;;;19.35;90.08;97437.47;5010270;28;20034;-77
2023/11/13 07:15:40;;;;;;;16.75;10.88;;;;;;;20.16;83.38;97431.03;5010595;28;20029;-76
2023/11/13 07:18:07;;;;;;;15.93;10.38;;;;;;;19.93;82.41;97427.09;5011310;28;20069;-76
2023/11/13 07:20:33;;;;;;;17.60;10.52;;;;;;;18.77;91.58;97437.75;5009921;28;20026;-76
2023/11/13 07:22:59;;;;;;;16.83;10.13;;;;;;;18.36;96.85;97430.03;4993639;28;20405;-76
2023/11/13 07:25:24;;;;;;;18.17;11.25;;;;;;;18.84;93.50;97424.47;4993129;28;20054;-76
2023/11/13 07:27:50;;;;;;;15.75;10.77;;;;;;;18.71;94.24;97427.50;5010077;28;20477;-76
2023/11/13 07:30:15;;;;;;;27.48;15.43;;;;;;;18.43;96.65;97437.41;5011168;28;20030;-76
2023/11/13 07:32:41;;;;;;;29.00;18.52;;;;;;;18.04;100.00;97429.50;5010132;28;20033;-77
2023/11/13 07:35:10;;;;;;;30.48;19.33;;;;;;;18.18;100.00;97426.34;5009910;28;20029;-77
2023/11/13 07:37:36;;;;;;;20.17;13.00;;;;;;;17.66;100.00;97420.38;5010125;28;20121;-75
2023/11/13 07:40:02;;;;;;;13.70;9.77;;;;;;;17.59;100.00;97410.28;5009861;28;20110;-77
2023/11/13 07:42:29;;;;;;;12.40;8.15;;;;;;;17.48;100.00;97416.63;5009622;28;20025;-76
2023/11/13 07:44:56;;;;;;;10.80;5.93;;;;;;;17.09;100.00;97420.28;5009528;28;20061;-75
2023/11/13 07:47:26;;;;;;;20.63;11.90;;;;;;;16.84;100.00;97418.06;4993420;28;20037;-75
2023/11/13 07:49:56;;;;;;;9.20;6.07;;;;;;;17.69;100.00;97413.81;5010874;28;20030;-75
2023/11/13 07:52:22;;;;;;;8.77;5.63;;;;;;;16.87;100.00;97407.84;4993953;28;20358;-77
2023/11/13 07:54:48;;;;;;;5.93;4.03;;;;;;;16.00;100.00;97427.22;5009564;28;20057;-76
2023/11/13 07:57:14;;;;;;;9.32;4.40;;;;;;;16.03;100.00;97430.53;5010716;28;20096;-76
2023/11/13 07:59:41;;;;;;;6.40;3.80;;;;;;;16.09;100.00;97413.81;5009598;28;20471;-76
2023/11/13 08:02:09;;;;;;;9.77;4.20;;;;;;;16.40;100.00;97416.53;5009566;28;20069;-77
2023/11/13 08:04:35;;;;;;;8.45;4.70;;;;;;;17.56;100.00;97419.53;4993171;28;20053;-76
2023/11/13 08:07:00;;;;;;;11.82;5.47;;;;;;;17.71;100.00;97428.94;4993096;28;20469;-75
2023/11/13 08:09:26;;;;;;;14.38;6.45;;;;;;;19.16;93.91;97418.63;4992864;28;20033;-75
2023/11/13 08:11:52;;;;;;;10.05;5.20;;;;;;;17.91;100.00;97421.66;5009635;28;20049;-76
2023/11/13 08:14:17;;;;;;;11.07;6.15;;;;;;;19.11;90.00;97413.63;4992483;28;20031;-76
2023/11/13 08:16:43;;;;;;;11.27;6.45;;;;;;;20.02;79.91;97407.16;4993093;28;20029;-75
2023/11/13 08:19:09;;;;;;;8.27;5.55;;;;;;;20.67;72.59;97392.19;5009374;28;20084;-76
2023/11/13 08:21:35;;;;;;;9.55;5.35;;;;;;;21.14;68.41;97395.31;4992897;28;20056;-76
2023/11/13 08:24:04;;;;;;;9.23;4.80;;;;;;;21.60;66.05;97392.06;5010652;28;20484;-77
2023/11/13 08:26:32;;;;;;;6.85;3.50;;;;;;;21.88;63.64;97386.28;4993153;28;20026;-77
2023/11/13 08:28:58;;;;;;;7.78;2.80;;;;;;;21.66;61.01;97385.06;4992581;28;20034;-76
2023/11/13 08:31:27;;;;;;;13.20;3.65;;;;;;;21.35;59.74;97384.00;4994270;28;20033;-77
2023/11/13 08:33:53;;;;;;;11.30;2.92;;;;;;;20.64;62.07;97384.34;4997249;28;20089;-77
2023/11/13 08:36:27;;;;;;;4.50;1.80;;;;;;;21.91;57.66;97364.19;4997122;28;20109;-76
2023/11/13 08:38:54;;;;;;;4.55;2.00;;;;;;;21.67;56.13;97354.13;4997481;28;20017;-76
2023/11/13 08:41:21;;;;;;;2.20;1.48;;;;;;;21.06;56.33;97349.88;4980812;28;20432;-77
2023/11/13 08:43:48;;;;;;;4.00;1.65;;;;;;;21.02;54.04;97343.06;4977148;28;20124;-77
2023/11/13 08:46:14;;;;;;;4.45;1.92;;;;;;;21.95;55.48;97346.50;4997340;28;20022;-77
2023/11/13 08:48:39;;;;;;;4.68;1.70;;;;;;;22.02;51.91;97337.50;5014149;28;20044;-77
2023/11/13 08:51:07;;;;;;;5.82;1.70;;;;;;;21.92;53.61;97342.25;4996600;28;20037;-77
2023/11/13 08:53:38;;;;;;;3.40;1.45;;;;;;;22.95;52.23;97338.63;4996682;28;20026;-76
2023/11/13 08:56:07;;;;;;;6.38;2.33;;;;;;;23.57;49.13;97344.13;4996904;28;20038;-76
2023/11/13 08:58:35;;;;;;;2.45;1.42;;;;;;;23.10;50.27;97344.22;4996618;28;20420;-76
2023/11/13 09:01:01;;;;;;;6.15;1.70;;;;;;;22.43;53.79;97340.13;4980116;28;20037;-77
2023/11/13 09:03:29;;;;;;;3.63;1.23;;;;;;;22.99;49.25;97333.66;4980264;28;20029;-77
2023/11/13 09:05:55;;;;;;;4.70;1.33;;;;;;;21.71;52.37;97344.59;4997204;28;20045;-77
2023/11/13 09:08:21;;;;;;;4.78;1.85;;;;;;;22.67;52.17;97346.41;4996448;28;20018;-77
2023/11/13 09:10:46;;;;;;;4.47;1.40;;;;;;;23.89;48.73;97330.25;4996356;28;20116;-77
2023/11/13 09:13:12;;;;;;;4.28;1.40;;;;;;;24.39;46.79;97328.78;4979926;28;20088;-77
2023/11/13 09:15:40;;;;;;;6.05;1.40;;;;;;;22.73;48.32;97330.38;4996056;28;20049;-76
2023/11/13 09:18:06;;;;;;;2.95;1.60;;;;;;;23.62;47.34;97328.91;4980008;28;20030;-76
2023/11/13 09:20:32;;;;;;;5.68;1.98;;;;;;;24.12;45.98;97322.88;4996056;28;20018;-77
2023/11/13 09:22:58;;;;;;;7.72;1.63;;;;;;;25.14;43.45;97333.06;4979529;28;20572;-78
2023/11/13 09:25:26;;;;;;;2.28;1.10;;;;;;;25.28;45.60;97332.19;5010895;28;20058;-77
2023/11/13 09:27:55;;;;;;;2.58;1.23;;;;;;;24.69;44.63;97328.63;5012338;28;20026;-77
2023/11/13 09:30:21;;;;;;;5.10;1.40;;;;;;;24.67;44.76;97332.59;4979667;28;20042;-76
2023/11/13 09:32:48;;;;;;;4.88;2.22;;;;;;;25.19;44.58;97330.59;5013418;28;20065;-76
2023/11/13 09:35:19;;;;;;;3.55;1.48;;;;;;;24.84;43.61;97336.84;5012265;28;20132;-77
2023/11/13 09:37:51;;;;;;;3.00;1.30;;;;;;;23.96;45.04;97336.69;5011965;28;20105;-77
2023/11/13 09:40:18;;;;;;;5.97;2.58;;;;;;;24.56;46.02;97341.25;5012076;28;20046;-77
2023/11/13 09:42:55;;;;;;;4.72;1.52;;;;;;;24.64;43.58;97322.84;5011800;28;20524;-77
2023/11/13 09:45:22;;;;;;;4.07;1.70;;;;;;;24.82;44.24;97347.16;5012117;28;20088;-77
2023/11/13 09:47:49;;;;;;;6.70;1.88;;;;;;;25.52;42.72;97343.88;5012276;28;20508;-77
2023/11/13 09:50:16;;;;;;;10.70;1.42;;;;;;;25.85;42.66;97342.31;5011753;28;20061;-76
2023/11/13 09:52:56;;;;;;;5.75;1.65;;;;;;;26.24;41.38;97336.41;5011900;28;20478;-76
2023/11/13 09:55:23;;;;;;;7.97;2.30;;;;;;;26.36;41.67;97346.63;4995895;28;20067;-77
2023/11/13 09:57:53;;;;;;;10.60;2.28;;;;;;;26.37;41.01;97345.56;4995491;28;20030;-77
2023/11/13 10:00:23;;;;;;;6.30;1.80;;;;;;;25.75;41.40;97337.16;5011620;28;20106;-77
2023/11/13 10:02:53;;;;;;;0.88;0.75;;;;;;;24.15;43.93;97352.56;5011475;28;20416;-78
2023/11/13 10:05:21;;;;;;;1.88;0.88;;;;;;;24.99;42.66;97356.00;4995617;28;20041;-76
2023/11/13 10:07:55;;;;;;;6.50;1.92;;;;;;;25.32;43.72;97352.66;5011756;28;20401;-78
2023/11/13 10:10:23;;;;;;;5.63;1.55;;;;;;;25.12;42.76;97346.09;4995529;28;20032;-77
2023/11/13 10:12:50;;;;;;;9.05;1.15;;;;;;;25.04;43.93;97354.38;5011627;28;20073;-77
2023/11/13 10:15:22;;;;;;;7.40;1.52;;;;;;;25.61;42.56;97345.44;5011052;28;20026;-76
2023/11/13 10:17:48;;;;;;;3.17;1.17;;;;;;;26.03;40.87;97326.25;5011854;28;20087;-77
2023/11/13 10:20:17;;;;;;;5.40;1.38;;;;;;;25.97;41.81;97338.00;4996136;28;20497;-76
2023/11/13 10:22:44;;;;;;;4.53;1.40;;;;;;;25.48;39.92;97332.41;5012109;28;20400;-76
2023/11/13 10:25:11;;;;;;;3.35;1.10;;;;;;;24.35;42.56;97331.03;5010920;28;20111;-77
2023/11/13 10:27:44;;;;;;;3.45;1.30;;;;;;;25.22;40.85;97323.88;5011378;28;20036;-77
2023/11/13 10:30:10;;;;;;;2.22;1.20;;;;;;;25.80;40.50;97317.41;4995182;28;20133;-77
2023/11/13 10:32:36;;;;;;;7.15;1.60;;;;;;;26.47;40.39;97316.94;4994512;28;20037;-77
2023/11/13 10:35:05;;;;;;;3.65;1.23;;;;;;;26.60;38.71;97314.31;5011418;28;20036;-79
2023/11/13 10:37:31;;;;;;;1.50;1.10;;;;;;;27.14;38.92;97317.16;5011356;28;20026;-77
2023/11/13 10:39:57;;;;;;;1.17;0.95;;;;;;;26.81;38.01;97317.84;4994926;28;20061;-77
2023/11/13 10:42:26;;;;;;;5.63;1.80;;;;;;;26.70;37.72;97312.88;4994741;28;20030;-77
2023/11/13 10:44:53;;;;;;;2.53;1.33;;;;;;;25.29;39.99;97311.09;5011135;28;20033;-78
2023/11/13 10:47:23;;;;;;;7.88;1.40;;;;;;;24.83;41.42;97313.25;5010734;28;20097;-76
2023/11/13 10:49:56;;;;;;;4.03;2.60;;;;;;;24.57;41.48;97310.97;4995014;28;20477;-77
2023/11/13 10:52:27;;;;;;;18.13;3.92;;;;;;;26.07;40.62;97308.38;5010874;28;20412;-77
2023/11/13 10:54:59;;;;;;;2.25;1.50;;;;;;;26.04;38.25;97296.94;5010286;28;20057;-77
2023/11/13 10:57:26;;;;;;;5.95;1.27;;;;;;;25.44;39.73;97305.63;5010617;28;20116;-78
2023/11/13 10:59:56;;;;;;;5.32;1.45;;;;;;;26.33;39.21;97308.59;5010938;28;20021;-78
2023/11/13 11:02:44;;;;;;;3.85;1.27;;;;;;;26.24;39.14;97314.47;5011793;28;20048;-78
2023/11/13 11:05:17;;;;;;;1.98;1.00;;;;;;;26.41;38.50;97310.38;4994732;28;20121;-77
2023/11/13 11:07:43;;;;;;;2.33;0.95;;;;;;;26.69;37.45;97310.34;5010957;28;20029;-78
2023/11/13 11:10:08;;;;;;;3.33;0.90;;;;;;;25.28;38.56;97318.50;4994248;28;20079;-78
2023/11/13 11:12:37;;;;;;;4.95;1.30;;;;;;;25.83;39.00;97311.53;5010801;28;20022;-77
2023/11/13 11:15:08;;;;;;;4.50;1.05;;;;;;;25.33;39.37;97307.81;5012127;28;20037;-77
2023/11/13 11:17:36;;;;;;;2.72;0.85;;;;;;;25.77;38.73;97302.19;5010343;28;20433;-77
2023/11/13 11:20:07;;;;;;;6.38;1.38;;;;;;;25.26;39.47;97304.13;4994296;28;20069;-77
2023/11/13 11:22:45;;;;;;;1.55;1.02;;;;;;;24.37;40.03;97303.50;5010416;28;20033;-77